sensor_id;sensor_type;location;lat;lon;timestamp;P1;durP1;ratioP1;P2;durP2;ratioP2
13388;SDS011;6764;53.250;10.410;2022-10-10T00:00:25;5.43;;;2.43;;
13388;SDS011;6764;53.250;10.410;2022-10-10T00:02:51;6.33;;;2.53;;
13388;SDS011;6764;53.250;10.410;2022-10-10T00:05:16;7.67;;;2.47;;
13388;SDS011;6764;53.250;10.410;2022-10-10T00:07:42;8.07;;;2.97;;
13388;SDS011;6764;53.250;10.410;2022-10-10T00:10:09;3.93;;;2.37;;
13388;SDS011;6764;53.250;10.410;2022-10-10T00:12:35;4.37;;;2.50;;
13388;SDS011;6764;53.250;10.410;2022-10-10T00:15:00;3.00;;;2.30;;
13388;SDS011;6764;53.250;10.410;2022-10-10T00:17:26;5.03;;;2.20;;
13388;SDS011;6764;53.250;10.410;2022-10-10T00:19:51;3.43;;;2.40;;
13388;SDS011;6764;53.250;10.410;2022-10-10T00:22:17;6.43;;;2.77;;
13388;SDS011;6764;53.250;10.410;2022-10-10T00:24:42;5.57;;;2.67;;
13388;SDS011;6764;53.250;10.410;2022-10-10T00:27:08;7.90;;;2.50;;
13388;SDS011;6764;53.250;10.410;2022-10-10T00:29:33;8.20;;;2.80;;
13388;SDS011;6764;53.250;10.410;2022-10-10T00:31:59;4.90;;;2.27;;
13388;SDS011;6764;53.250;10.410;2022-10-10T00:34:25;4.87;;;3.00;;
13388;SDS011;6764;53.250;10.410;2022-10-10T00:36:50;5.10;;;2.13;;
13388;SDS011;6764;53.250;10.410;2022-10-10T00:39:16;6.10;;;2.90;;
13388;SDS011;6764;53.250;10.410;2022-10-10T00:41:41;6.47;;;2.67;;
13388;SDS011;6764;53.250;10.410;2022-10-10T00:44:08;7.33;;;2.10;;
13388;SDS011;6764;53.250;10.410;2022-10-10T00:46:36;5.10;;;2.90;;
13388;SDS011;6764;53.250;10.410;2022-10-10T00:49:03;4.30;;;2.47;;
13388;SDS011;6764;53.250;10.410;2022-10-10T00:51:34;6.50;;;2.60;;
13388;SDS011;6764;53.250;10.410;2022-10-10T00:54:01;4.63;;;2.67;;
13388;SDS011;6764;53.250;10.410;2022-10-10T00:56:32;6.03;;;2.70;;
13388;SDS011;6764;53.250;10.410;2022-10-10T00:59:03;4.57;;;2.10;;
13388;SDS011;6764;53.250;10.410;2022-10-10T01:01:32;3.27;;;2.47;;
13388;SDS011;6764;53.250;10.410;2022-10-10T01:03:59;4.33;;;2.57;;
13388;SDS011;6764;53.250;10.410;2022-10-10T01:06:25;4.97;;;3.53;;
13388;SDS011;6764;53.250;10.410;2022-10-10T01:08:52;6.70;;;2.60;;
13388;SDS011;6764;53.250;10.410;2022-10-10T01:16:55;4.03;;;2.57;;
13388;SDS011;6764;53.250;10.410;2022-10-10T01:27:48;8.60;;;3.23;;
13388;SDS011;6764;53.250;10.410;2022-10-10T01:30:20;7.67;;;2.63;;
13388;SDS011;6764;53.250;10.410;2022-10-10T01:32:52;7.53;;;2.87;;
13388;SDS011;6764;53.250;10.410;2022-10-10T01:38:21;5.77;;;2.63;;
13388;SDS011;6764;53.250;10.410;2022-10-10T01:40:53;5.00;;;2.40;;
13388;SDS011;6764;53.250;10.410;2022-10-10T01:43:51;6.20;;;2.67;;
13388;SDS011;6764;53.250;10.410;2022-10-10T01:46:17;4.93;;;3.23;;
13388;SDS011;6764;53.250;10.410;2022-10-10T01:48:44;5.43;;;2.87;;
13388;SDS011;6764;53.250;10.410;2022-10-10T01:56:46;5.87;;;3.07;;
13388;SDS011;6764;53.250;10.410;2022-10-10T01:59:32;5.60;;;2.60;;
13388;SDS011;6764;53.250;10.410;2022-10-10T02:04:57;7.00;;;2.87;;
13388;SDS011;6764;53.250;10.410;2022-10-10T02:10:13;7.00;;;2.87;;
13388;SDS011;6764;53.250;10.410;2022-10-10T02:12:44;4.83;;;3.00;;
13388;SDS011;6764;53.250;10.410;2022-10-10T02:15:13;4.80;;;2.73;;
13388;SDS011;6764;53.250;10.410;2022-10-10T02:17:42;5.30;;;2.47;;
13388;SDS011;6764;53.250;10.410;2022-10-10T02:20:10;10.03;;;3.60;;
13388;SDS011;6764;53.250;10.410;2022-10-10T02:22:40;3.97;;;2.87;;
13388;SDS011;6764;53.250;10.410;2022-10-10T02:25:08;5.27;;;3.40;;
13388;SDS011;6764;53.250;10.410;2022-10-10T02:27:43;5.60;;;2.90;;
13388;SDS011;6764;53.250;10.410;2022-10-10T02:30:15;10.20;;;3.80;;
13388;SDS011;6764;53.250;10.410;2022-10-10T02:32:44;8.07;;;3.83;;
13388;SDS011;6764;53.250;10.410;2022-10-10T02:35:23;6.33;;;3.10;;
13388;SDS011;6764;53.250;10.410;2022-10-10T02:37:53;10.53;;;3.83;;
13388;SDS011;6764;53.250;10.410;2022-10-10T02:40:19;7.17;;;3.30;;
13388;SDS011;6764;53.250;10.410;2022-10-10T02:42:52;5.30;;;3.27;;
13388;SDS011;6764;53.250;10.410;2022-10-10T02:45:19;7.33;;;3.57;;
13388;SDS011;6764;53.250;10.410;2022-10-10T02:47:49;5.97;;;2.97;;
13388;SDS011;6764;53.250;10.410;2022-10-10T02:50:15;7.00;;;3.13;;
13388;SDS011;6764;53.250;10.410;2022-10-10T02:52:40;5.23;;;2.80;;
13388;SDS011;6764;53.250;10.410;2022-10-10T02:55:06;3.70;;;2.47;;
13388;SDS011;6764;53.250;10.410;2022-10-10T02:57:32;5.20;;;3.13;;
13388;SDS011;6764;53.250;10.410;2022-10-10T02:59:57;5.80;;;2.90;;
13388;SDS011;6764;53.250;10.410;2022-10-10T03:02:23;7.27;;;3.37;;
13388;SDS011;6764;53.250;10.410;2022-10-10T03:04:48;6.33;;;3.43;;
13388;SDS011;6764;53.250;10.410;2022-10-10T03:07:14;5.00;;;3.33;;
13388;SDS011;6764;53.250;10.410;2022-10-10T03:09:40;7.37;;;3.20;;
13388;SDS011;6764;53.250;10.410;2022-10-10T03:12:05;9.67;;;2.90;;
13388;SDS011;6764;53.250;10.410;2022-10-10T03:14:31;7.10;;;2.97;;
13388;SDS011;6764;53.250;10.410;2022-10-10T03:16:56;8.20;;;2.90;;
13388;SDS011;6764;53.250;10.410;2022-10-10T03:19:22;3.23;;;2.70;;
13388;SDS011;6764;53.250;10.410;2022-10-10T03:21:48;9.40;;;3.43;;
13388;SDS011;6764;53.250;10.410;2022-10-10T03:24:14;9.47;;;3.67;;
13388;SDS011;6764;53.250;10.410;2022-10-10T03:26:39;3.67;;;2.73;;
13388;SDS011;6764;53.250;10.410;2022-10-10T03:29:05;7.33;;;3.33;;
13388;SDS011;6764;53.250;10.410;2022-10-10T03:31:31;5.00;;;2.80;;
13388;SDS011;6764;53.250;10.410;2022-10-10T03:33:57;5.77;;;3.40;;
13388;SDS011;6764;53.250;10.410;2022-10-10T03:36:22;5.63;;;3.00;;
13388;SDS011;6764;53.250;10.410;2022-10-10T03:38:48;5.97;;;3.00;;
13388;SDS011;6764;53.250;10.410;2022-10-10T03:41:14;6.20;;;2.93;;
13388;SDS011;6764;53.250;10.410;2022-10-10T03:43:39;5.10;;;3.23;;
13388;SDS011;6764;53.250;10.410;2022-10-10T03:46:05;6.33;;;3.67;;
13388;SDS011;6764;53.250;10.410;2022-10-10T03:48:30;6.30;;;3.27;;
13388;SDS011;6764;53.250;10.410;2022-10-10T03:50:56;5.80;;;2.90;;
13388;SDS011;6764;53.250;10.410;2022-10-10T03:53:24;10.17;;;4.00;;
13388;SDS011;6764;53.250;10.410;2022-10-10T03:55:51;5.47;;;3.20;;
13388;SDS011;6764;53.250;10.410;2022-10-10T03:58:17;4.63;;;3.23;;
13388;SDS011;6764;53.250;10.410;2022-10-10T04:00:55;5.97;;;3.67;;
13388;SDS011;6764;53.250;10.410;2022-10-10T04:03:21;6.70;;;3.37;;
13388;SDS011;6764;53.250;10.410;2022-10-10T04:05:47;8.97;;;3.17;;
13388;SDS011;6764;53.250;10.410;2022-10-10T04:08:13;6.87;;;3.23;;
13388;SDS011;6764;53.250;10.410;2022-10-10T04:10:39;7.37;;;3.63;;
13388;SDS011;6764;53.250;10.410;2022-10-10T04:13:04;6.40;;;3.70;;
13388;SDS011;6764;53.250;10.410;2022-10-10T04:15:30;4.57;;;3.53;;
13388;SDS011;6764;53.250;10.410;2022-10-10T04:17:56;6.00;;;3.47;;
13388;SDS011;6764;53.250;10.410;2022-10-10T04:20:22;7.00;;;3.57;;
13388;SDS011;6764;53.250;10.410;2022-10-10T04:22:48;6.50;;;3.50;;
13388;SDS011;6764;53.250;10.410;2022-10-10T04:25:16;7.93;;;3.23;;
13388;SDS011;6764;53.250;10.410;2022-10-10T04:27:42;9.83;;;4.10;;
13388;SDS011;6764;53.250;10.410;2022-10-10T04:30:08;7.27;;;3.40;;
13388;SDS011;6764;53.250;10.410;2022-10-10T04:32:35;7.97;;;3.77;;
13388;SDS011;6764;53.250;10.410;2022-10-10T04:35:01;9.43;;;3.90;;
13388;SDS011;6764;53.250;10.410;2022-10-10T04:37:27;6.37;;;3.30;;
13388;SDS011;6764;53.250;10.410;2022-10-10T04:39:56;6.20;;;3.87;;
13388;SDS011;6764;53.250;10.410;2022-10-10T04:42:22;7.80;;;3.50;;
13388;SDS011;6764;53.250;10.410;2022-10-10T04:44:47;9.60;;;3.80;;
13388;SDS011;6764;53.250;10.410;2022-10-10T04:47:13;7.90;;;3.77;;
13388;SDS011;6764;53.250;10.410;2022-10-10T04:49:39;7.57;;;4.17;;
13388;SDS011;6764;53.250;10.410;2022-10-10T04:52:06;6.23;;;3.97;;
13388;SDS011;6764;53.250;10.410;2022-10-10T04:54:33;6.60;;;4.37;;
13388;SDS011;6764;53.250;10.410;2022-10-10T04:56:58;6.93;;;3.63;;
13388;SDS011;6764;53.250;10.410;2022-10-10T04:59:24;7.33;;;3.43;;
13388;SDS011;6764;53.250;10.410;2022-10-10T05:01:52;6.40;;;4.13;;
13388;SDS011;6764;53.250;10.410;2022-10-10T05:04:21;8.33;;;4.00;;
13388;SDS011;6764;53.250;10.410;2022-10-10T05:06:46;7.20;;;4.37;;
13388;SDS011;6764;53.250;10.410;2022-10-10T05:09:12;6.03;;;3.83;;
13388;SDS011;6764;53.250;10.410;2022-10-10T05:11:37;6.63;;;3.57;;
13388;SDS011;6764;53.250;10.410;2022-10-10T05:14:03;7.67;;;4.20;;
13388;SDS011;6764;53.250;10.410;2022-10-10T05:16:29;3.90;;;3.50;;
13388;SDS011;6764;53.250;10.410;2022-10-10T05:18:56;7.37;;;3.87;;
13388;SDS011;6764;53.250;10.410;2022-10-10T05:21:22;4.33;;;3.77;;
13388;SDS011;6764;53.250;10.410;2022-10-10T05:23:48;7.67;;;3.80;;
13388;SDS011;6764;53.250;10.410;2022-10-10T05:26:14;10.93;;;4.53;;
13388;SDS011;6764;53.250;10.410;2022-10-10T05:28:40;10.80;;;4.23;;
13388;SDS011;6764;53.250;10.410;2022-10-10T05:31:05;7.67;;;3.97;;
13388;SDS011;6764;53.250;10.410;2022-10-10T05:33:31;9.97;;;4.00;;
13388;SDS011;6764;53.250;10.410;2022-10-10T05:36:04;9.40;;;4.90;;
13388;SDS011;6764;53.250;10.410;2022-10-10T05:38:36;7.50;;;3.97;;
13388;SDS011;6764;53.250;10.410;2022-10-10T05:41:03;9.10;;;4.37;;
13388;SDS011;6764;53.250;10.410;2022-10-10T05:43:32;7.90;;;4.60;;
13388;SDS011;6764;53.250;10.410;2022-10-10T05:45:59;5.10;;;4.10;;
13388;SDS011;6764;53.250;10.410;2022-10-10T05:48:25;5.50;;;4.23;;
13388;SDS011;6764;53.250;10.410;2022-10-10T05:50:52;8.47;;;4.43;;
13388;SDS011;6764;53.250;10.410;2022-10-10T05:53:20;8.27;;;5.07;;
13388;SDS011;6764;53.250;10.410;2022-10-10T05:55:46;8.47;;;4.73;;
13388;SDS011;6764;53.250;10.410;2022-10-10T05:58:12;7.03;;;4.67;;
13388;SDS011;6764;53.250;10.410;2022-10-10T06:00:41;5.97;;;4.83;;
13388;SDS011;6764;53.250;10.410;2022-10-10T06:03:08;6.73;;;4.97;;
13388;SDS011;6764;53.250;10.410;2022-10-10T06:05:37;7.53;;;4.90;;
13388;SDS011;6764;53.250;10.410;2022-10-10T06:08:04;7.87;;;4.97;;
13388;SDS011;6764;53.250;10.410;2022-10-10T06:10:32;6.70;;;5.10;;
13388;SDS011;6764;53.250;10.410;2022-10-10T06:13:02;6.97;;;4.93;;
13388;SDS011;6764;53.250;10.410;2022-10-10T06:15:28;8.83;;;4.77;;
13388;SDS011;6764;53.250;10.410;2022-10-10T06:17:54;9.93;;;4.93;;
13388;SDS011;6764;53.250;10.410;2022-10-10T06:20:19;7.73;;;5.10;;
13388;SDS011;6764;53.250;10.410;2022-10-10T06:22:45;5.83;;;4.50;;
13388;SDS011;6764;53.250;10.410;2022-10-10T06:25:10;8.37;;;5.23;;
13388;SDS011;6764;53.250;10.410;2022-10-10T06:27:36;8.37;;;5.13;;
13388;SDS011;6764;53.250;10.410;2022-10-10T06:30:02;7.67;;;4.73;;
13388;SDS011;6764;53.250;10.410;2022-10-10T06:32:28;10.23;;;4.90;;
13388;SDS011;6764;53.250;10.410;2022-10-10T06:34:54;4.83;;;4.30;;
13388;SDS011;6764;53.250;10.410;2022-10-10T06:37:19;9.50;;;4.57;;
13388;SDS011;6764;53.250;10.410;2022-10-10T06:39:45;8.20;;;4.23;;
13388;SDS011;6764;53.250;10.410;2022-10-10T06:42:11;6.73;;;4.60;;
13388;SDS011;6764;53.250;10.410;2022-10-10T06:44:36;5.00;;;4.30;;
13388;SDS011;6764;53.250;10.410;2022-10-10T06:47:02;8.30;;;4.93;;
13388;SDS011;6764;53.250;10.410;2022-10-10T06:49:27;6.03;;;4.13;;
13388;SDS011;6764;53.250;10.410;2022-10-10T06:51:53;11.37;;;5.07;;
13388;SDS011;6764;53.250;10.410;2022-10-10T06:54:22;8.23;;;4.70;;
13388;SDS011;6764;53.250;10.410;2022-10-10T06:56:47;8.10;;;4.97;;
13388;SDS011;6764;53.250;10.410;2022-10-10T06:59:13;6.57;;;4.33;;
13388;SDS011;6764;53.250;10.410;2022-10-10T07:01:39;11.07;;;4.90;;
13388;SDS011;6764;53.250;10.410;2022-10-10T07:04:04;10.73;;;4.90;;
13388;SDS011;6764;53.250;10.410;2022-10-10T07:06:30;7.47;;;4.47;;
13388;SDS011;6764;53.250;10.410;2022-10-10T07:08:56;8.67;;;5.40;;
13388;SDS011;6764;53.250;10.410;2022-10-10T07:11:22;7.50;;;4.73;;
13388;SDS011;6764;53.250;10.410;2022-10-10T07:13:49;12.03;;;4.70;;
13388;SDS011;6764;53.250;10.410;2022-10-10T07:16:16;5.70;;;4.50;;
13388;SDS011;6764;53.250;10.410;2022-10-10T07:18:42;6.03;;;4.70;;
13388;SDS011;6764;53.250;10.410;2022-10-10T07:21:08;8.77;;;5.07;;
13388;SDS011;6764;53.250;10.410;2022-10-10T07:23:33;7.87;;;5.10;;
13388;SDS011;6764;53.250;10.410;2022-10-10T07:26:02;11.47;;;4.70;;
13388;SDS011;6764;53.250;10.410;2022-10-10T07:28:30;8.70;;;4.50;;
13388;SDS011;6764;53.250;10.410;2022-10-10T07:30:59;7.03;;;4.57;;
13388;SDS011;6764;53.250;10.410;2022-10-10T07:33:30;9.50;;;5.30;;
13388;SDS011;6764;53.250;10.410;2022-10-10T07:36:00;5.47;;;4.93;;
13388;SDS011;6764;53.250;10.410;2022-10-10T07:38:26;7.03;;;4.47;;
13388;SDS011;6764;53.250;10.410;2022-10-10T07:40:52;7.43;;;4.20;;
13388;SDS011;6764;53.250;10.410;2022-10-10T07:43:17;7.37;;;5.00;;
13388;SDS011;6764;53.250;10.410;2022-10-10T07:45:43;8.87;;;4.33;;
13388;SDS011;6764;53.250;10.410;2022-10-10T07:48:08;6.87;;;4.90;;
13388;SDS011;6764;53.250;10.410;2022-10-10T07:50:34;7.17;;;4.63;;
13388;SDS011;6764;53.250;10.410;2022-10-10T07:53:00;6.50;;;4.70;;
13388;SDS011;6764;53.250;10.410;2022-10-10T07:55:26;8.73;;;5.73;;
13388;SDS011;6764;53.250;10.410;2022-10-10T07:57:51;8.23;;;5.03;;
13388;SDS011;6764;53.250;10.410;2022-10-10T08:00:17;8.13;;;4.77;;
13388;SDS011;6764;53.250;10.410;2022-10-10T08:02:43;9.67;;;5.63;;
13388;SDS011;6764;53.250;10.410;2022-10-10T08:05:08;7.00;;;4.37;;
13388;SDS011;6764;53.250;10.410;2022-10-10T08:07:34;6.30;;;3.93;;
13388;SDS011;6764;53.250;10.410;2022-10-10T08:10:00;7.77;;;3.90;;
13388;SDS011;6764;53.250;10.410;2022-10-10T08:12:26;6.43;;;3.90;;
13388;SDS011;6764;53.250;10.410;2022-10-10T08:14:52;11.23;;;5.00;;
13388;SDS011;6764;53.250;10.410;2022-10-10T08:17:18;6.60;;;3.93;;
13388;SDS011;6764;53.250;10.410;2022-10-10T08:19:44;5.47;;;3.73;;
13388;SDS011;6764;53.250;10.410;2022-10-10T08:22:09;6.07;;;3.83;;
13388;SDS011;6764;53.250;10.410;2022-10-10T08:24:36;6.73;;;3.60;;
13388;SDS011;6764;53.250;10.410;2022-10-10T08:27:01;7.00;;;3.80;;
13388;SDS011;6764;53.250;10.410;2022-10-10T08:29:27;4.60;;;3.73;;
13388;SDS011;6764;53.250;10.410;2022-10-10T08:31:53;7.17;;;3.50;;
13388;SDS011;6764;53.250;10.410;2022-10-10T08:34:18;5.73;;;3.27;;
13388;SDS011;6764;53.250;10.410;2022-10-10T08:36:44;8.23;;;4.60;;
13388;SDS011;6764;53.250;10.410;2022-10-10T08:39:09;7.10;;;3.77;;
13388;SDS011;6764;53.250;10.410;2022-10-10T08:44:01;5.03;;;3.40;;
13388;SDS011;6764;53.250;10.410;2022-10-10T08:46:36;6.10;;;3.17;;
13388;SDS011;6764;53.250;10.410;2022-10-10T08:51:42;5.30;;;3.30;;
13388;SDS011;6764;53.250;10.410;2022-10-10T08:54:14;3.67;;;3.00;;
13388;SDS011;6764;53.250;10.410;2022-10-10T08:56:41;6.77;;;4.23;;
13388;SDS011;6764;53.250;10.410;2022-10-10T08:59:13;7.07;;;3.53;;
13388;SDS011;6764;53.250;10.410;2022-10-10T09:01:41;5.70;;;3.50;;
13388;SDS011;6764;53.250;10.410;2022-10-10T09:04:12;4.40;;;3.00;;
13388;SDS011;6764;53.250;10.410;2022-10-10T09:06:47;5.80;;;2.73;;
13388;SDS011;6764;53.250;10.410;2022-10-10T09:09:38;4.13;;;3.07;;
13388;SDS011;6764;53.250;10.410;2022-10-10T09:12:25;4.37;;;3.50;;
13388;SDS011;6764;53.250;10.410;2022-10-10T09:15:12;3.63;;;2.70;;
13388;SDS011;6764;53.250;10.410;2022-10-10T09:18:01;5.10;;;2.90;;
13388;SDS011;6764;53.250;10.410;2022-10-10T09:23:32;5.30;;;3.10;;
13388;SDS011;6764;53.250;10.410;2022-10-10T09:26:06;4.80;;;3.10;;
13388;SDS011;6764;53.250;10.410;2022-10-10T09:36:46;3.58;;;2.53;;
13388;SDS011;6764;53.250;10.410;2022-10-10T09:39:21;4.10;;;2.13;;
13388;SDS011;6764;53.250;10.410;2022-10-10T09:42:00;6.70;;;2.40;;
13388;SDS011;6764;53.250;10.410;2022-10-10T09:44:27;4.88;;;2.20;;
13388;SDS011;6764;53.250;10.410;2022-10-10T09:46:54;4.25;;;2.20;;
13388;SDS011;6764;53.250;10.410;2022-10-10T09:49:19;6.07;;;2.47;;
13388;SDS011;6764;53.250;10.410;2022-10-10T09:51:46;3.65;;;2.00;;
13388;SDS011;6764;53.250;10.410;2022-10-10T09:54:14;3.20;;;2.10;;
13388;SDS011;6764;53.250;10.410;2022-10-10T09:59:57;17.90;;;9.50;;
13388;SDS011;6764;53.250;10.410;2022-10-10T10:02:13;2.92;;;2.10;;
13388;SDS011;6764;53.250;10.410;2022-10-10T10:04:42;4.05;;;1.70;;
13388;SDS011;6764;53.250;10.410;2022-10-10T10:07:17;4.05;;;2.67;;
13388;SDS011;6764;53.250;10.410;2022-10-10T10:10:00;3.60;;;2.10;;
13388;SDS011;6764;53.250;10.410;2022-10-10T10:12:41;3.97;;;1.80;;
13388;SDS011;6764;53.250;10.410;2022-10-10T10:15:15;3.95;;;2.30;;
13388;SDS011;6764;53.250;10.410;2022-10-10T10:17:41;7.85;;;2.20;;
13388;SDS011;6764;53.250;10.410;2022-10-10T10:21:08;3.65;;;2.30;;
13388;SDS011;6764;53.250;10.410;2022-10-10T10:23:22;3.47;;;2.13;;
13388;SDS011;6764;53.250;10.410;2022-10-10T10:26:42;2.97;;;1.90;;
13388;SDS011;6764;53.250;10.410;2022-10-10T10:28:38;4.43;;;1.90;;
13388;SDS011;6764;53.250;10.410;2022-10-10T10:31:05;4.43;;;2.17;;
13388;SDS011;6764;53.250;10.410;2022-10-10T10:38:59;5.40;;;2.10;;
13388;SDS011;6764;53.250;10.410;2022-10-10T10:41:34;3.55;;;2.03;;
13388;SDS011;6764;53.250;10.410;2022-10-10T10:52:09;8.00;;;4.28;;
13388;SDS011;6764;53.250;10.410;2022-10-10T10:57:25;4.60;;;2.50;;
13388;SDS011;6764;53.250;10.410;2022-10-10T11:00:16;6.03;;;2.97;;
13388;SDS011;6764;53.250;10.410;2022-10-10T11:02:57;4.35;;;2.40;;
13388;SDS011;6764;53.250;10.410;2022-10-10T11:16:54;2.92;;;1.98;;
13388;SDS011;6764;53.250;10.410;2022-10-10T11:22:21;7.57;;;2.38;;
13388;SDS011;6764;53.250;10.410;2022-10-10T11:24:51;3.45;;;2.20;;
13388;SDS011;6764;53.250;10.410;2022-10-10T11:27:29;6.78;;;2.47;;
13388;SDS011;6764;53.250;10.410;2022-10-10T11:30:08;3.92;;;1.92;;
13388;SDS011;6764;53.250;10.410;2022-10-10T11:38:58;6.50;;;2.25;;
13388;SDS011;6764;53.250;10.410;2022-10-10T11:41:12;5.32;;;2.75;;
13388;SDS011;6764;53.250;10.410;2022-10-10T11:43:56;3.92;;;2.20;;
13388;SDS011;6764;53.250;10.410;2022-10-10T11:46:57;6.60;;;2.58;;
13388;SDS011;6764;53.250;10.410;2022-10-10T11:49:50;11.25;;;2.80;;
13388;SDS011;6764;53.250;10.410;2022-10-10T11:52:21;4.55;;;2.50;;
13388;SDS011;6764;53.250;10.410;2022-10-10T11:55:01;6.30;;;2.83;;
13388;SDS011;6764;53.250;10.410;2022-10-10T11:57:39;3.50;;;2.63;;
13388;SDS011;6764;53.250;10.410;2022-10-10T12:00:14;6.10;;;2.83;;
13388;SDS011;6764;53.250;10.410;2022-10-10T12:02:41;6.07;;;3.10;;
13388;SDS011;6764;53.250;10.410;2022-10-10T12:05:22;6.80;;;2.90;;
13388;SDS011;6764;53.250;10.410;2022-10-10T12:10:22;7.75;;;2.53;;
13388;SDS011;6764;53.250;10.410;2022-10-10T12:12:52;9.63;;;2.95;;
13388;SDS011;6764;53.250;10.410;2022-10-10T12:15:25;3.95;;;2.90;;
13388;SDS011;6764;53.250;10.410;2022-10-10T12:17:57;4.15;;;2.40;;
13388;SDS011;6764;53.250;10.410;2022-10-10T12:23:05;5.93;;;2.55;;
13388;SDS011;6764;53.250;10.410;2022-10-10T12:25:39;7.07;;;2.53;;
13388;SDS011;6764;53.250;10.410;2022-10-10T12:35:55;5.38;;;2.53;;
13388;SDS011;6764;53.250;10.410;2022-10-10T12:38:22;7.80;;;2.70;;
13388;SDS011;6764;53.250;10.410;2022-10-10T12:43:44;7.63;;;2.67;;
13388;SDS011;6764;53.250;10.410;2022-10-10T12:48:57;13.82;;;3.40;;
13388;SDS011;6764;53.250;10.410;2022-10-10T12:51:23;7.90;;;3.75;;
13388;SDS011;6764;53.250;10.410;2022-10-10T12:53:53;8.85;;;3.63;;
13388;SDS011;6764;53.250;10.410;2022-10-10T12:56:32;7.15;;;3.40;;
13388;SDS011;6764;53.250;10.410;2022-10-10T12:59:04;6.90;;;3.35;;
13388;SDS011;6764;53.250;10.410;2022-10-10T13:01:37;9.77;;;3.83;;
13388;SDS011;6764;53.250;10.410;2022-10-10T13:04:05;7.97;;;4.30;;
13388;SDS011;6764;53.250;10.410;2022-10-10T13:06:37;11.80;;;4.50;;
13388;SDS011;6764;53.250;10.410;2022-10-10T13:09:09;8.45;;;4.20;;
13388;SDS011;6764;53.250;10.410;2022-10-10T13:14:20;6.72;;;4.22;;
13388;SDS011;6764;53.250;10.410;2022-10-10T13:16:46;7.18;;;4.40;;
13388;SDS011;6764;53.250;10.410;2022-10-10T13:19:22;9.50;;;5.00;;
13388;SDS011;6764;53.250;10.410;2022-10-10T13:21:50;5.00;;;3.67;;
13388;SDS011;6764;53.250;10.410;2022-10-10T13:24:28;6.00;;;3.80;;
13388;SDS011;6764;53.250;10.410;2022-10-10T13:26:59;6.93;;;3.78;;
13388;SDS011;6764;53.250;10.410;2022-10-10T13:29:35;5.43;;;3.40;;
13388;SDS011;6764;53.250;10.410;2022-10-10T13:32:05;9.90;;;4.45;;
13388;SDS011;6764;53.250;10.410;2022-10-10T13:34:33;7.20;;;3.25;;
13388;SDS011;6764;53.250;10.410;2022-10-10T13:37:01;7.97;;;4.05;;
13388;SDS011;6764;53.250;10.410;2022-10-10T13:39:30;8.20;;;3.47;;
13388;SDS011;6764;53.250;10.410;2022-10-10T13:41:57;6.90;;;2.75;;
13388;SDS011;6764;53.250;10.410;2022-10-10T13:44:24;5.18;;;2.60;;
13388;SDS011;6764;53.250;10.410;2022-10-10T13:50:17;4.97;;;3.00;;
13388;SDS011;6764;53.250;10.410;2022-10-10T13:52:49;7.75;;;2.63;;
13388;SDS011;6764;53.250;10.410;2022-10-10T13:55:38;5.57;;;2.78;;
13388;SDS011;6764;53.250;10.410;2022-10-10T13:58:05;6.78;;;2.83;;
13388;SDS011;6764;53.250;10.410;2022-10-10T14:00:32;6.10;;;3.40;;
13388;SDS011;6764;53.250;10.410;2022-10-10T14:02:59;5.72;;;2.88;;
13388;SDS011;6764;53.250;10.410;2022-10-10T14:05:27;7.20;;;2.80;;
13388;SDS011;6764;53.250;10.410;2022-10-10T14:07:54;5.60;;;3.08;;
13388;SDS011;6764;53.250;10.410;2022-10-10T14:10:22;4.25;;;2.78;;
13388;SDS011;6764;53.250;10.410;2022-10-10T14:12:52;7.68;;;2.75;;
13388;SDS011;6764;53.250;10.410;2022-10-10T14:18:13;5.53;;;2.78;;
13388;SDS011;6764;53.250;10.410;2022-10-10T14:20:42;5.50;;;2.30;;
13388;SDS011;6764;53.250;10.410;2022-10-10T14:23:09;5.25;;;2.95;;
13388;SDS011;6764;53.250;10.410;2022-10-10T14:25:38;6.15;;;2.95;;
13388;SDS011;6764;53.250;10.410;2022-10-10T14:28:05;4.03;;;3.03;;
13388;SDS011;6764;53.250;10.410;2022-10-10T14:30:30;5.15;;;2.67;;
13388;SDS011;6764;53.250;10.410;2022-10-10T14:32:56;5.68;;;3.00;;
13388;SDS011;6764;53.250;10.410;2022-10-10T14:35:22;4.80;;;2.50;;
13388;SDS011;6764;53.250;10.410;2022-10-10T14:37:47;7.80;;;2.72;;
13388;SDS011;6764;53.250;10.410;2022-10-10T14:40:17;3.53;;;2.60;;
13388;SDS011;6764;53.250;10.410;2022-10-10T14:42:45;7.45;;;3.35;;
13388;SDS011;6764;53.250;10.410;2022-10-10T14:45:11;7.53;;;3.13;;
13388;SDS011;6764;53.250;10.410;2022-10-10T14:47:38;9.43;;;3.22;;
13388;SDS011;6764;53.250;10.410;2022-10-10T14:50:50;4.97;;;2.70;;
13388;SDS011;6764;53.250;10.410;2022-10-10T14:53:01;7.55;;;3.13;;
13388;SDS011;6764;53.250;10.410;2022-10-10T14:55:28;5.43;;;2.90;;
13388;SDS011;6764;53.250;10.410;2022-10-10T14:57:53;5.88;;;3.03;;
13388;SDS011;6764;53.250;10.410;2022-10-10T15:00:20;3.60;;;2.60;;
13388;SDS011;6764;53.250;10.410;2022-10-10T15:02:47;7.10;;;2.67;;
13388;SDS011;6764;53.250;10.410;2022-10-10T15:05:13;5.43;;;2.63;;
13388;SDS011;6764;53.250;10.410;2022-10-10T15:07:40;7.63;;;2.75;;
13388;SDS011;6764;53.250;10.410;2022-10-10T15:10:06;6.10;;;2.65;;
13388;SDS011;6764;53.250;10.410;2022-10-10T15:12:37;4.50;;;2.95;;
13388;SDS011;6764;53.250;10.410;2022-10-10T15:15:08;5.80;;;3.47;;
13388;SDS011;6764;53.250;10.410;2022-10-10T15:17:34;9.25;;;3.08;;
13388;SDS011;6764;53.250;10.410;2022-10-10T15:20:00;6.18;;;2.72;;
13388;SDS011;6764;53.250;10.410;2022-10-10T15:22:27;8.00;;;2.92;;
13388;SDS011;6764;53.250;10.410;2022-10-10T15:24:54;4.60;;;2.50;;
13388;SDS011;6764;53.250;10.410;2022-10-10T15:27:19;6.35;;;2.55;;
13388;SDS011;6764;53.250;10.410;2022-10-10T15:29:45;4.65;;;2.70;;
13388;SDS011;6764;53.250;10.410;2022-10-10T15:32:11;3.72;;;2.92;;
13388;SDS011;6764;53.250;10.410;2022-10-10T15:34:36;10.65;;;4.47;;
13388;SDS011;6764;53.250;10.410;2022-10-10T15:37:02;10.38;;;3.72;;
13388;SDS011;6764;53.250;10.410;2022-10-10T15:39:27;7.60;;;4.18;;
13388;SDS011;6764;53.250;10.410;2022-10-10T15:41:54;8.23;;;4.63;;
13388;SDS011;6764;53.250;10.410;2022-10-10T15:44:20;12.65;;;4.35;;
13388;SDS011;6764;53.250;10.410;2022-10-10T15:46:46;4.05;;;3.42;;
13388;SDS011;6764;53.250;10.410;2022-10-10T15:49:12;4.72;;;3.28;;
13388;SDS011;6764;53.250;10.410;2022-10-10T15:51:42;7.30;;;3.20;;
13388;SDS011;6764;53.250;10.410;2022-10-10T15:54:09;10.85;;;3.90;;
13388;SDS011;6764;53.250;10.410;2022-10-10T15:56:35;5.03;;;3.17;;
13388;SDS011;6764;53.250;10.410;2022-10-10T16:01:29;6.00;;;3.05;;
13388;SDS011;6764;53.250;10.410;2022-10-10T16:03:55;7.75;;;3.30;;
13388;SDS011;6764;53.250;10.410;2022-10-10T16:06:22;7.25;;;3.53;;
13388;SDS011;6764;53.250;10.410;2022-10-10T16:08:50;7.40;;;3.15;;
13388;SDS011;6764;53.250;10.410;2022-10-10T16:11:17;6.18;;;3.33;;
13388;SDS011;6764;53.250;10.410;2022-10-10T16:13:48;5.47;;;2.80;;
13388;SDS011;6764;53.250;10.410;2022-10-10T16:16:15;8.02;;;3.50;;
13388;SDS011;6764;53.250;10.410;2022-10-10T16:18:42;4.70;;;2.70;;
13388;SDS011;6764;53.250;10.410;2022-10-10T16:21:13;11.70;;;5.13;;
13388;SDS011;6764;53.250;10.410;2022-10-10T16:23:41;4.75;;;3.08;;
13388;SDS011;6764;53.250;10.410;2022-10-10T16:26:09;6.22;;;2.80;;
13388;SDS011;6764;53.250;10.410;2022-10-10T16:28:36;4.43;;;2.75;;
13388;SDS011;6764;53.250;10.410;2022-10-10T16:31:06;7.93;;;2.58;;
13388;SDS011;6764;53.250;10.410;2022-10-10T16:33:33;5.22;;;2.78;;
13388;SDS011;6764;53.250;10.410;2022-10-10T16:36:00;4.45;;;2.78;;
13388;SDS011;6764;53.250;10.410;2022-10-10T16:38:31;5.80;;;2.58;;
13388;SDS011;6764;53.250;10.410;2022-10-10T16:41:01;3.85;;;2.75;;
13388;SDS011;6764;53.250;10.410;2022-10-10T16:43:28;6.32;;;3.03;;
13388;SDS011;6764;53.250;10.410;2022-10-10T16:45:53;5.05;;;2.65;;
13388;SDS011;6764;53.250;10.410;2022-10-10T16:48:19;8.15;;;3.47;;
13388;SDS011;6764;53.250;10.410;2022-10-10T16:50:44;4.25;;;3.20;;